Time;durP1;ratioP1;P1;durP2;ratioP2;P2;SDS_P1;SDS_P2;PMS_P1;PMS_P2;Temp;Humidity;BMP_temperature;BMP_pressure;BME280_temperature;BME280_humidity;BME280_pressure;Samples;Min_cycle;Max_cycle;Signal;HPM_P1;HPM_P2
2022/12/29 00:00:53;;;;;;;1.33;0.80;;;9.40;79.10;;;;;;4129592;28;20186;-64
2022/12/29 00:02:54;;;;;;;1.73;0.90;;;9.60;78.10;;;;;;4142964;28;20193;-63
2022/12/29 00:04:54;;;;;;;1.20;0.70;;;9.70;77.50;;;;;;4129195;28;20186;-63
2022/12/29 00:06:55;;;;;;;1.63;0.90;;;9.70;77.10;;;;;;4137474;28;20179;-63
2022/12/29 00:08:56;;;;;;;2.57;1.00;;;9.80;76.30;;;;;;4134705;28;20239;-63
2022/12/29 00:10:57;;;;;;;3.77;0.87;;;9.80;74.70;;;;;;4129168;28;20658;-63
2022/12/29 00:17:35;;;;;;;1.30;0.80;;;10.00;70.90;;;;;;4139488;28;20628;-64
2022/12/29 00:35:57;;;;;;;2.23;1.10;;;9.80;72.60;;;;;;4142140;28;20805;-64
2022/12/29 00:45:02;;;;;;;1.10;0.90;;;9.90;71.20;;;;;;4130565;28;20173;-64
2022/12/29 00:47:04;;;;;;;1.17;1.07;;;9.90;71.30;;;;;;4129224;28;20676;-65
2022/12/29 00:51:26;;;;;;;1.07;0.80;;;9.90;70.20;;;;;;4115949;28;20171;-64
2022/12/29 00:53:27;;;;;;;0.87;0.70;;;10.00;68.70;;;;;;4130348;28;20170;-64
2022/12/29 00:55:27;;;;;;;3.43;0.97;;;10.10;68.80;;;;;;4130601;28;20673;-64
2022/12/29 00:57:28;;;;;;;2.63;0.80;;;10.00;68.80;;;;;;4129960;28;20880;-64
2022/12/29 00:59:29;;;;;;;0.60;0.60;;;10.00;69.10;;;;;;4130476;28;20680;-64
2022/12/29 01:01:30;;;;;;;2.43;0.80;;;10.00;68.80;;;;;;4130244;28;20622;-64
2022/12/29 01:03:30;;;;;;;1.03;0.70;;;10.10;67.20;;;;;;4112740;28;20194;-64
2022/12/29 01:05:31;;;;;;;2.17;0.83;;;10.10;67.80;;;;;;4130238;28;20182;-71
2022/12/29 01:07:32;;;;;;;2.10;0.70;;;10.10;67.10;;;;;;4112069;28;20562;-69
2022/12/29 01:11:52;;;;;;;1.10;0.70;;;10.10;64.80;;;;;;4130053;28;20739;-64
2022/12/29 01:13:52;;;;;;;1.43;0.80;;;10.20;65.10;;;;;;4112825;28;20250;-64
2022/12/29 01:15:55;;;;;;;3.13;1.20;;;10.20;65.20;;;;;;4130026;28;20993;-64
2022/12/29 01:17:55;;;;;;;1.87;1.27;;;10.10;65.10;;;;;;4096275;29;20187;-64
2022/12/29 01:19:56;;;;;;;1.93;0.77;;;10.10;65.40;;;;;;4130057;28;20190;-64
2022/12/29 01:21:57;;;;;;;1.50;0.77;;;10.10;65.20;;;;;;4130298;28;20281;-64
2022/12/29 01:23:57;;;;;;;0.80;0.60;;;10.00;64.90;;;;;;4119217;28;20190;-64
2022/12/29 01:26:09;;;;;;;1.93;0.77;;;10.00;65.10;;;;;;4136688;28;20818;-64
2022/12/29 01:28:10;;;;;;;1.47;0.80;;;10.00;64.30;;;;;;4130299;28;20178;-64
2022/12/29 01:30:11;;;;;;;3.77;0.80;;;10.00;64.50;;;;;;4130908;28;20202;-64
2022/12/29 01:32:12;;;;;;;1.70;0.70;;;10.00;65.60;;;;;;4130368;28;20206;-64
2022/12/29 01:34:13;;;;;;;2.43;0.70;;;10.00;64.30;;;;;;4130450;28;20583;-64
2022/12/29 01:36:16;;;;;;;0.67;0.67;;;10.00;64.20;;;;;;4130858;28;20664;-65
2022/12/29 01:38:17;;;;;;;0.90;0.80;;;10.10;64.70;;;;;;4130049;28;20181;-64
2022/12/29 01:40:17;;;;;;;2.60;1.00;;;10.00;65.80;;;;;;4130370;28;20182;-64
2022/12/29 01:42:23;;;;;;;1.37;1.00;;;9.90;66.10;;;;;;4130484;28;20241;-64
2022/12/29 01:44:52;;;;;;;1.00;0.70;;;10.00;66.70;;;;;;4113060;28;20167;-64
2022/12/29 01:46:54;;;;;;;0.80;0.80;;;10.00;66.50;;;;;;4130123;28;20183;-64
2022/12/29 01:49:05;;;;;;;3.50;0.70;;;9.90;67.50;;;;;;4112894;28;20261;-63
2022/12/29 01:51:06;;;;;;;1.90;0.73;;;9.80;67.60;;;;;;4113290;28;20178;-63
2022/12/29 01:53:14;;;;;;;2.10;0.80;;;9.90;68.30;;;;;;4130097;28;20248;-64
2022/12/29 01:55:15;;;;;;;2.23;0.90;;;9.80;68.50;;;;;;4112811;28;20174;-64
2022/12/29 01:57:27;;;;;;;1.90;0.80;;;9.70;69.40;;;;;;4129340;28;20185;-64
2022/12/29 01:59:37;;;;;;;1.43;0.73;;;9.60;69.40;;;;;;4112840;28;20194;-63
2022/12/29 02:01:38;;;;;;;1.63;0.87;;;9.60;69.80;;;;;;4109179;28;20191;-64
2022/12/29 02:03:39;;;;;;;3.33;0.90;;;9.60;69.80;;;;;;4113883;28;20183;-64
2022/12/29 02:06:09;;;;;;;0.83;0.83;;;9.60;68.90;;;;;;4098888;29;20195;-63
2022/12/29 02:08:11;;;;;;;1.17;0.90;;;9.70;69.40;;;;;;4116211;28;20214;-63
2022/12/29 02:10:13;;;;;;;4.73;1.20;;;9.60;70.20;;;;;;4116892;28;20211;-64
2022/12/29 02:12:14;;;;;;;2.37;1.00;;;9.50;70.70;;;;;;4116596;28;20250;-63
2022/12/29 02:14:15;;;;;;;2.30;0.70;;;9.50;70.40;;;;;;4117130;28;20210;-63
2022/12/29 02:16:31;;;;;;;1.23;1.13;;;9.60;70.60;;;;;;4099462;29;20206;-63
2022/12/29 02:18:56;;;;;;;2.17;0.80;;;9.50;71.20;;;;;;4099561;29;20187;-63
2022/12/29 02:21:28;;;;;;;0.87;0.73;;;9.50;71.70;;;;;;4116548;28;20175;-63
2022/12/29 02:24:01;;;;;;;1.37;1.20;;;9.50;71.70;;;;;;4099113;29;20714;-64
2022/12/29 02:26:46;;;;;;;2.23;1.10;;;9.50;72.20;;;;;;4116696;28;20202;-64
2022/12/29 02:29:24;;;;;;;1.70;1.10;;;9.40;73.00;;;;;;4109221;28;20802;-63
2022/12/29 02:31:39;;;;;;;3.00;1.13;;;9.50;73.20;;;;;;4119761;28;20610;-63
2022/12/29 02:34:00;;;;;;;3.77;3.47;;;9.40;74.30;;;;;;4099526;29;20244;-63
2022/12/29 02:36:39;;;;;;;3.23;1.20;;;9.40;74.60;;;;;;4099192;29;20266;-63
2022/12/29 02:39:12;;;;;;;1.60;0.87;;;9.30;74.70;;;;;;4099639;29;20195;-64
2022/12/29 02:41:33;;;;;;;3.23;0.90;;;9.30;75.70;;;;;;4099100;29;20173;-63
2022/12/29 02:44:03;;;;;;;1.60;1.20;;;9.30;75.40;;;;;;4116221;28;20190;-63
2022/12/29 02:46:27;;;;;;;2.13;1.10;;;9.30;76.10;;;;;;4100878;28;20210;-64
2022/12/29 02:48:37;;;;;;;3.00;1.43;;;9.30;76.10;;;;;;4114836;28;20200;-63
2022/12/29 02:50:48;;;;;;;1.23;0.83;;;9.20;77.50;;;;;;4115227;28;20194;-64
2022/12/29 02:53:00;;;;;;;3.13;1.27;;;9.20;77.20;;;;;;4132266;28;20202;-63
2022/12/29 02:55:00;;;;;;;1.93;1.33;;;9.20;77.00;;;;;;4114964;28;20624;-63
2022/12/29 02:57:01;;;;;;;2.03;1.10;;;9.30;76.30;;;;;;4114107;28;20182;-67
2022/12/29 02:59:02;;;;;;;2.20;1.00;;;9.40;76.50;;;;;;4132205;28;20205;-63
2022/12/29 03:01:27;;;;;;;2.40;1.10;;;9.40;76.60;;;;;;4114865;28;20242;-64
2022/12/29 03:04:11;;;;;;;1.57;1.47;;;9.30;76.90;;;;;;4132086;28;20171;-64
2022/12/29 03:06:52;;;;;;;3.27;0.90;;;9.20;78.40;;;;;;4114723;28;20199;-63
2022/12/29 03:09:18;;;;;;;1.73;1.30;;;9.20;78.30;;;;;;4108476;28;20689;-64
2022/12/29 03:16:40;;;;;;;1.47;1.00;;;9.20;79.30;;;;;;4117071;28;20182;-63
2022/12/29 03:19:01;;;;;;;2.27;1.83;;;9.20;79.80;;;;;;4113464;28;20219;-64
2022/12/29 03:22:26;;;;;;;4.10;1.13;;;9.20;78.80;;;;;;4133608;28;20250;-63
2022/12/29 03:23:49;;;;;;;4.43;1.40;;;9.30;78.90;;;;;;4123857;28;20205;-64
2022/12/29 03:25:56;;;;;;;2.40;1.10;;;9.30;80.10;;;;;;4114289;28;20269;-63
2022/12/29 03:28:02;;;;;;;6.00;1.10;;;9.30;79.80;;;;;;4130077;28;20194;-64
2022/12/29 03:30:05;;;;;;;1.60;1.00;;;9.20;79.10;;;;;;4114418;28;20210;-64
2022/12/29 03:32:09;;;;;;;2.00;1.20;;;9.30;79.50;;;;;;4114304;28;20222;-63
2022/12/29 03:34:11;;;;;;;2.30;1.10;;;9.30;79.70;;;;;;4130253;28;20233;-63
2022/12/29 03:36:22;;;;;;;1.60;1.10;;;9.30;79.70;;;;;;4130321;28;20703;-63
2022/12/29 03:38:33;;;;;;;5.53;1.20;;;9.20;80.10;;;;;;4131857;28;20167;-64
2022/12/29 03:40:35;;;;;;;3.17;1.10;;;9.20;79.80;;;;;;4114433;28;20183;-64
2022/12/29 03:42:37;;;;;;;3.67;1.20;;;9.30;80.20;;;;;;4098605;29;20251;-63
2022/12/29 03:44:42;;;;;;;1.50;1.10;;;9.30;79.90;;;;;;4130842;28;20190;-64
2022/12/29 03:46:42;;;;;;;7.40;1.37;;;9.30;79.20;;;;;;4114128;28;20270;-63
2022/12/29 03:48:43;;;;;;;2.00;1.03;;;9.30;78.50;;;;;;4131775;28;20241;-64
2022/12/29 03:50:44;;;;;;;4.60;2.20;;;9.30;79.10;;;;;;4131810;28;20186;-63
2022/12/29 03:52:44;;;;;;;1.90;1.27;;;9.30;79.00;;;;;;4131530;28;20245;-64
2022/12/29 03:54:45;;;;;;;1.90;1.10;;;9.20;80.00;;;;;;4131266;28;20190;-64
2022/12/29 03:56:46;;;;;;;2.53;2.33;;;9.10;80.90;;;;;;4130789;28;20178;-63
2022/12/29 03:58:46;;;;;;;2.80;1.27;;;9.00;81.10;;;;;;4113998;28;20195;-65
2022/12/29 04:00:47;;;;;;;3.67;1.03;;;9.00;81.80;;;;;;4126270;28;20194;-63
2022/12/29 04:02:48;;;;;;;2.37;1.27;;;9.00;81.90;;;;;;4115568;28;20250;-63
2022/12/29 04:04:48;;;;;;;1.33;1.03;;;8.90;82.40;;;;;;4115131;28;20198;-64
2022/12/29 04:06:49;;;;;;;2.27;1.30;;;8.90;82.40;;;;;;4114504;28;20233;-64
2022/12/29 04:08:50;;;;;;;1.67;1.10;;;9.00;81.50;;;;;;4114864;28;20353;-63
2022/12/29 04:10:51;;;;;;;1.37;1.00;;;8.90;82.20;;;;;;4115308;28;20183;-63
2022/12/29 04:12:51;;;;;;;1.67;1.30;;;9.00;82.20;;;;;;4114896;28;20210;-63
2022/12/29 04:14:52;;;;;;;1.60;1.00;;;9.10;81.70;;;;;;4114679;28;20210;-63
2022/12/29 04:16:53;;;;;;;1.77;0.90;;;9.00;82.20;;;;;;4114425;28;20245;-63
2022/12/29 04:18:53;;;;;;;2.73;1.60;;;9.00;82.30;;;;;;4114758;28;20214;-63
2022/12/29 04:21:00;;;;;;;2.17;1.00;;;9.10;82.80;;;;;;4114820;28;20651;-63
2022/12/29 04:23:04;;;;;;;2.30;1.00;;;9.20;82.00;;;;;;4114934;28;20172;-63
2022/12/29 04:25:06;;;;;;;1.80;1.10;;;9.20;82.00;;;;;;4115172;28;20198;-63
2022/12/29 04:27:06;;;;;;;1.40;1.00;;;9.20;81.80;;;;;;4113585;28;20208;-63
2022/12/29 04:29:07;;;;;;;4.27;1.10;;;9.20;82.00;;;;;;4114617;28;20214;-63
2022/12/29 04:31:08;;;;;;;1.10;1.00;;;9.30;82.20;;;;;;4109254;28;20925;-64
2022/12/29 04:33:09;;;;;;;2.17;1.30;;;9.30;82.30;;;;;;4130692;28;20218;-63
2022/12/29 04:35:09;;;;;;;1.73;1.07;;;9.20;82.80;;;;;;4130647;28;20193;-64
2022/12/29 04:37:10;;;;;;;1.07;0.90;;;9.20;83.20;;;;;;4129915;28;20190;-64
2022/12/29 04:39:11;;;;;;;2.93;1.53;;;9.20;83.30;;;;;;4131139;28;20213;-64
2022/12/29 04:41:11;;;;;;;2.07;1.10;;;9.20;83.60;;;;;;4130812;28;20182;-64
2022/12/29 04:43:13;;;;;;;1.30;1.00;;;9.20;83.80;;;;;;4130785;28;20186;-63
2022/12/29 04:45:14;;;;;;;1.13;1.00;;;9.20;84.40;;;;;;4113463;28;20289;-64
2022/12/29 04:47:15;;;;;;;1.13;0.93;;;9.20;84.60;;;;;;4130128;28;20201;-64
2022/12/29 04:49:15;;;;;;;2.23;1.20;;;9.30;84.70;;;;;;4130963;28;20220;-62
2022/12/29 04:51:16;;;;;;;1.50;0.90;;;9.30;85.00;;;;;;4130566;28;20189;-64
2022/12/29 04:53:17;;;;;;;2.17;1.03;;;9.20;85.50;;;;;;4112957;28;20215;-64
2022/12/29 04:55:18;;;;;;;2.17;1.30;;;9.30;86.00;;;;;;4130558;28;20929;-64
2022/12/29 04:57:19;;;;;;;1.30;1.00;;;9.30;86.30;;;;;;4129897;28;20186;-63
2022/12/29 04:59:19;;;;;;;1.87;1.03;;;9.30;86.80;;;;;;4130252;28;20214;-64
2022/12/29 05:01:20;;;;;;;3.47;1.00;;;9.30;86.70;;;;;;4112714;28;20194;-64
2022/12/29 05:03:20;;;;;;;3.03;1.27;;;9.30;86.80;;;;;;4130273;28;20198;-63
2022/12/29 05:05:21;;;;;;;1.90;0.80;;;9.20;87.20;;;;;;4130307;28;20193;-63
2022/12/29 05:07:22;;;;;;;1.63;1.03;;;9.20;87.90;;;;;;4112443;28;20270;-63
2022/12/29 05:09:23;;;;;;;2.80;1.10;;;9.10;88.50;;;;;;4130338;28;20697;-63
2022/12/29 05:11:24;;;;;;;3.93;1.20;;;9.10;88.80;;;;;;4129974;28;20182;-64
2022/12/29 05:13:25;;;;;;;1.63;1.13;;;9.10;88.50;;;;;;4130173;28;20193;-63
2022/12/29 05:15:25;;;;;;;3.40;1.40;;;9.10;88.70;;;;;;4129976;28;20174;-63
2022/12/29 05:17:26;;;;;;;1.67;1.00;;;9.10;88.80;;;;;;4124811;28;20186;-63
2022/12/29 05:19:27;;;;;;;1.50;1.13;;;9.20;89.00;;;;;;4124455;28;20503;-63
2022/12/29 05:21:27;;;;;;;2.03;1.00;;;9.10;88.40;;;;;;4135590;28;20601;-63
2022/12/29 05:23:28;;;;;;;2.03;1.13;;;9.20;87.90;;;;;;4131051;28;20194;-63
2022/12/29 05:25:28;;;;;;;2.30;0.73;;;9.20;86.60;;;;;;4130255;28;20182;-63
2022/12/29 05:27:29;;;;;;;2.73;0.90;;;9.20;86.80;;;;;;4129313;28;20189;-63
2022/12/29 05:29:30;;;;;;;1.70;0.90;;;9.30;86.10;;;;;;4129958;28;20206;-64
2022/12/29 05:31:31;;;;;;;2.30;0.90;;;9.40;85.90;;;;;;4129411;28;20653;-63
2022/12/29 05:33:31;;;;;;;1.90;0.97;;;9.40;85.30;;;;;;4129871;28;20185;-63
2022/12/29 05:35:32;;;;;;;2.43;1.40;;;9.40;84.70;;;;;;4129763;28;20261;-63
2022/12/29 05:37:33;;;;;;;1.60;1.50;;;9.40;85.30;;;;;;4129185;28;20190;-63
2022/12/29 05:39:34;;;;;;;1.30;1.20;;;9.40;84.80;;;;;;4130029;28;20198;-63
2022/12/29 05:41:35;;;;;;;2.20;1.20;;;9.40;84.50;;;;;;4129799;28;20167;-63
2022/12/29 05:43:35;;;;;;;1.43;1.23;;;9.40;84.10;;;;;;4112547;28;20233;-63
2022/12/29 05:45:36;;;;;;;1.03;0.90;;;9.40;84.00;;;;;;4129879;28;20221;-63
2022/12/29 05:47:37;;;;;;;2.17;1.00;;;9.50;83.80;;;;;;4129261;28;20182;-63
2022/12/29 05:49:37;;;;;;;2.00;1.00;;;9.50;83.60;;;;;;4130037;28;20206;-63
2022/12/29 05:51:38;;;;;;;1.53;1.43;;;9.50;83.70;;;;;;4130022;28;20661;-63
2022/12/29 05:53:39;;;;;;;2.87;1.10;;;9.50;83.30;;;;;;4130087;28;20653;-63
2022/12/29 05:55:39;;;;;;;2.00;1.00;;;9.60;83.50;;;;;;4096549;29;20230;-63
2022/12/29 05:57:40;;;;;;;1.80;1.10;;;9.60;83.20;;;;;;4129340;28;20185;-63
2022/12/29 05:59:41;;;;;;;3.00;1.27;;;9.60;83.00;;;;;;4130025;28;20190;-63
2022/12/29 06:01:41;;;;;;;1.60;0.80;;;9.60;82.60;;;;;;4099815;28;20187;-63
2022/12/29 06:03:42;;;;;;;1.40;1.10;;;9.70;82.50;;;;;;4114542;28;20187;-63
2022/12/29 06:05:45;;;;;;;1.67;0.70;;;9.70;82.10;;;;;;4097567;29;20178;-64
2022/12/29 06:07:46;;;;;;;5.40;0.83;;;9.70;81.50;;;;;;4114739;28;20190;-63
2022/12/29 06:09:47;;;;;;;1.17;0.90;;;9.70;81.60;;;;;;4097703;29;20242;-63
2022/12/29 06:11:47;;;;;;;0.90;0.80;;;9.90;80.90;;;;;;4114778;28;20249;-63
2022/12/29 06:13:48;;;;;;;1.13;0.87;;;9.90;80.60;;;;;;4114829;28;20183;-63
2022/12/29 06:15:50;;;;;;;1.00;0.90;;;9.80;80.30;;;;;;4114429;28;20195;-63
2022/12/29 06:17:50;;;;;;;1.87;1.10;;;9.80;80.60;;;;;;4097213;29;20658;-63
2022/12/29 06:19:51;;;;;;;1.93;0.80;;;9.80;80.30;;;;;;4113397;28;20198;-63
2022/12/29 06:21:52;;;;;;;2.90;1.00;;;9.80;81.50;;;;;;4113565;28;20273;-64
2022/12/29 06:23:53;;;;;;;1.83;1.10;;;9.80;80.60;;;;;;4113009;28;20197;-64
2022/12/29 06:25:54;;;;;;;2.00;1.10;;;9.90;79.60;;;;;;4113164;28;20254;-62
2022/12/29 06:27:55;;;;;;;1.00;0.90;;;9.90;80.60;;;;;;4095368;29;20192;-63
2022/12/29 06:29:56;;;;;;;2.17;1.10;;;9.90;80.00;;;;;;4119739;28;20213;-63
2022/12/29 06:31:58;;;;;;;2.23;0.90;;;9.90;79.80;;;;;;4129102;28;20210;-63
2022/12/29 06:33:58;;;;;;;2.27;1.50;;;9.80;79.50;;;;;;4129006;28;20178;-64
2022/12/29 06:35:59;;;;;;;2.47;1.30;;;9.80;80.10;;;;;;4129278;28;20187;-64
2022/12/29 06:38:00;;;;;;;4.57;2.00;;;9.80;80.20;;;;;;4128428;28;20178;-64
2022/12/29 06:40:01;;;;;;;1.17;1.00;;;9.80;79.60;;;;;;4129204;28;20626;-64
2022/12/29 06:42:02;;;;;;;0.97;0.80;;;9.80;78.70;;;;;;4112444;28;20266;-64
2022/12/29 06:44:03;;;;;;;3.33;1.53;;;9.80;78.90;;;;;;4112218;28;20179;-63
2022/12/29 06:46:05;;;;;;;1.00;0.70;;;9.70;79.50;;;;;;4129693;28;20183;-63
2022/12/29 06:48:06;;;;;;;1.80;0.93;;;9.70;79.20;;;;;;4129022;28;20270;-64
2022/12/29 06:50:07;;;;;;;0.90;0.80;;;9.60;79.40;;;;;;4112694;28;20323;-64
2022/12/29 06:52:08;;;;;;;2.70;1.00;;;9.60;79.40;;;;;;4131848;28;20206;-64
2022/12/29 06:54:08;;;;;;;2.30;1.20;;;9.60;79.20;;;;;;4131974;28;20182;-64
2022/12/29 06:56:09;;;;;;;1.57;1.10;;;9.60;79.30;;;;;;4132025;28;20189;-64
2022/12/29 06:58:10;;;;;;;2.90;0.80;;;9.50;79.50;;;;;;4131506;28;20193;-64
2022/12/29 07:00:11;;;;;;;1.17;0.97;;;9.40;79.50;;;;;;4131795;28;20198;-64
2022/12/29 07:02:14;;;;;;;1.63;1.10;;;9.50;79.40;;;;;;4131946;28;20182;-64
2022/12/29 07:04:15;;;;;;;2.40;1.30;;;9.40;79.30;;;;;;4131858;28;20193;-64
2022/12/29 07:06:15;;;;;;;1.80;0.90;;;9.50;79.90;;;;;;4131570;28;20677;-64
2022/12/29 07:08:16;;;;;;;1.43;0.90;;;9.50;78.00;;;;;;4131085;28;20198;-64
2022/12/29 07:10:17;;;;;;;2.00;1.10;;;9.50;78.00;;;;;;4131896;28;20209;-64
2022/12/29 07:12:17;;;;;;;1.10;0.90;;;9.60;78.00;;;;;;4131557;28;20246;-64
2022/12/29 07:14:18;;;;;;;1.43;1.00;;;9.50;77.60;;;;;;4131584;28;20601;-64
2022/12/29 07:16:19;;;;;;;2.87;1.53;;;9.40;78.00;;;;;;4131444;28;20260;-64
2022/12/29 07:18:20;;;;;;;3.10;1.07;;;9.50;77.90;;;;;;4136328;28;20201;-64
2022/12/29 07:20:21;;;;;;;1.70;1.50;;;9.60;77.30;;;;;;4142276;28;20186;-63
2022/12/29 07:22:22;;;;;;;2.00;1.30;;;9.60;77.00;;;;;;4132082;28;20217;-64
2022/12/29 07:24:22;;;;;;;2.13;1.00;;;9.70;76.80;;;;;;4132015;28;20209;-64
2022/12/29 07:26:24;;;;;;;2.63;1.20;;;9.60;76.50;;;;;;4131158;28;20178;-64
2022/12/29 07:28:24;;;;;;;6.03;1.53;;;9.70;76.70;;;;;;4131345;28;20522;-64
2022/12/29 07:30:25;;;;;;;3.47;1.50;;;9.80;75.70;;;;;;4114114;28;20195;-64
2022/12/29 07:32:25;;;;;;;2.83;1.40;;;9.80;76.10;;;;;;4131451;28;20237;-63
2022/12/29 07:34:26;;;;;;;3.87;1.60;;;9.90;75.70;;;;;;4131449;28;20185;-63
2022/12/29 07:36:27;;;;;;;2.87;1.00;;;9.90;76.00;;;;;;4131031;28;20175;-64
2022/12/29 07:38:28;;;;;;;3.23;1.20;;;10.00;74.90;;;;;;4097977;29;20183;-64
2022/12/29 07:40:29;;;;;;;0.80;0.80;;;10.10;74.50;;;;;;4131569;28;20189;-64
2022/12/29 07:42:31;;;;;;;1.63;1.20;;;10.10;74.00;;;;;;4131451;28;20208;-64
2022/12/29 07:44:31;;;;;;;1.87;1.63;;;10.20;74.20;;;;;;4131462;28;20193;-64
2022/12/29 07:46:32;;;;;;;2.47;1.30;;;10.20;73.60;;;;;;4130569;28;20178;-64
2022/12/29 07:48:35;;;;;;;1.80;1.20;;;10.20;73.90;;;;;;4131260;28;20213;-64
2022/12/29 07:50:36;;;;;;;2.07;1.20;;;10.30;74.20;;;;;;4131101;28;20264;-64
2022/12/29 07:52:37;;;;;;;3.13;1.33;;;10.30;73.50;;;;;;4130961;28;20207;-63
2022/12/29 07:54:38;;;;;;;1.93;1.40;;;10.30;74.00;;;;;;4131125;28;20183;-63
2022/12/29 07:56:38;;;;;;;3.60;1.17;;;10.30;74.30;;;;;;4130485;28;20221;-63
2022/12/29 07:58:39;;;;;;;1.83;1.00;;;10.30;75.20;;;;;;4130946;28;20875;-63
2022/12/29 08:00:40;;;;;;;1.53;1.20;;;10.20;75.00;;;;;;4131031;28;20253;-63
2022/12/29 08:02:40;;;;;;;1.47;1.20;;;10.20;75.30;;;;;;4129647;28;20186;-63
2022/12/29 08:04:41;;;;;;;1.23;0.90;;;10.30;74.60;;;;;;4119436;28;20183;-63
2022/12/29 08:06:42;;;;;;;2.03;1.10;;;10.30;74.80;;;;;;4114052;28;20190;-63
2022/12/29 08:08:42;;;;;;;5.03;1.20;;;10.40;75.10;;;;;;4097078;29;20693;-63
2022/12/29 08:10:43;;;;;;;0.90;0.80;;;10.30;75.00;;;;;;4114709;28;20191;-64
2022/12/29 08:12:44;;;;;;;1.27;1.23;;;10.30;75.20;;;;;;4114519;28;20222;-64
2022/12/29 08:14:45;;;;;;;4.83;2.20;;;10.30;76.00;;;;;;4114552;28;20179;-63
2022/12/29 08:16:46;;;;;;;2.20;1.27;;;10.10;79.00;;;;;;4096800;29;20494;-64
2022/12/29 08:18:46;;;;;;;2.33;1.07;;;9.90;82.90;;;;;;4097142;29;20277;-64
2022/12/29 08:20:47;;;;;;;1.63;1.27;;;9.60;86.10;;;;;;4114558;28;20580;-64
2022/12/29 08:22:48;;;;;;;3.73;1.63;;;9.50;87.20;;;;;;4114447;28;20187;-63
2022/12/29 08:24:48;;;;;;;2.60;1.50;;;9.30;89.40;;;;;;4114190;28;20191;-63
2022/12/29 08:26:49;;;;;;;2.70;1.20;;;9.30;91.00;;;;;;4113742;28;20246;-63
2022/12/29 08:28:53;;;;;;;1.50;1.10;;;9.30;91.00;;;;;;4114302;28;20206;-63
2022/12/29 08:30:54;;;;;;;2.27;1.37;;;9.10;91.90;;;;;;4124373;28;20191;-64
2022/12/29 08:32:54;;;;;;;1.70;1.40;;;8.90;93.90;;;;;;4130325;28;20302;-63
2022/12/29 08:34:55;;;;;;;3.40;3.00;;;8.70;95.60;;;;;;4130495;28;20182;-63
2022/12/29 08:36:56;;;;;;;3.07;2.60;;;8.70;94.60;;;;;;4112562;28;20210;-63
2022/12/29 08:38:57;;;;;;;2.67;1.20;;;8.60;95.80;;;;;;4130218;28;20710;-63
2022/12/29 08:40:59;;;;;;;3.63;2.40;;;8.50;97.20;;;;;;4130415;28;20301;-63
2022/12/29 08:42:59;;;;;;;3.20;1.40;;;8.50;96.10;;;;;;4130427;28;20182;-64
2022/12/29 08:45:00;;;;;;;4.37;2.00;;;8.40;98.10;;;;;;4130398;28;20205;-63
2022/12/29 08:47:01;;;;;;;12.60;1.40;;;8.40;96.70;;;;;;4112243;28;20237;-63
2022/12/29 08:49:01;;;;;;;2.00;1.40;;;8.50;96.60;;;;;;4130079;28;20704;-64
2022/12/29 08:51:02;;;;;;;2.03;1.23;;;8.60;95.70;;;;;;4130267;28;20197;-64
2022/12/29 08:53:03;;;;;;;3.70;1.60;;;8.80;95.40;;;;;;4112811;28;20301;-64
2022/12/29 08:55:04;;;;;;;4.07;2.13;;;8.70;95.90;;;;;;4130137;28;20183;-63
2022/12/29 08:57:05;;;;;;;2.47;1.17;;;8.70;94.70;;;;;;4122548;28;20186;-63
2022/12/29 08:59:05;;;;;;;3.00;1.30;;;8.80;94.90;;;;;;4116500;28;20199;-65
2022/12/29 09:01:06;;;;;;;2.23;1.33;;;8.90;94.30;;;;;;4113923;28;20179;-63
2022/12/29 09:03:07;;;;;;;1.90;1.13;;;8.90;93.80;;;;;;4118922;28;20196;-63
2022/12/29 09:05:09;;;;;;;1.43;1.13;;;8.90;94.20;;;;;;4130979;28;20190;-63
2022/12/29 09:07:10;;;;;;;3.80;1.10;;;9.10;93.30;;;;;;4112882;28;20191;-63
2022/12/29 09:09:10;;;;;;;2.70;1.00;;;9.10;92.90;;;;;;4131205;28;20224;-64
2022/12/29 09:11:24;;;;;;;7.60;1.43;;;9.20;93.00;;;;;;4129559;28;20615;-64
2022/12/29 09:13:25;;;;;;;3.30;1.27;;;9.20;93.20;;;;;;4115026;28;20691;-64
2022/12/29 09:15:25;;;;;;;2.30;1.00;;;9.40;92.00;;;;;;4129589;28;20185;-64
2022/12/29 09:17:45;;;;;;;2.50;1.30;;;9.40;92.20;;;;;;4138195;28;20186;-64
2022/12/29 09:19:45;;;;;;;1.63;1.30;;;9.40;92.50;;;;;;4139980;28;20510;-64
2022/12/29 09:21:46;;;;;;;3.73;2.50;;;9.40;92.00;;;;;;4135227;28;20179;-63
2022/12/29 09:23:48;;;;;;;2.63;1.30;;;9.40;91.70;;;;;;4130031;28;20182;-64
2022/12/29 09:25:48;;;;;;;1.60;1.07;;;9.40;92.30;;;;;;4128863;28;20186;-64
2022/12/29 09:27:52;;;;;;;3.73;1.10;;;9.40;92.10;;;;;;4129139;28;20178;-64
2022/12/29 09:29:52;;;;;;;2.40;1.20;;;9.50;92.20;;;;;;4130027;28;20574;-64
2022/12/29 09:31:53;;;;;;;1.73;1.10;;;9.50;92.60;;;;;;4129825;28;20210;-64
2022/12/29 09:33:54;;;;;;;4.37;4.07;;;9.50;92.30;;;;;;4129572;28;20603;-64
2022/12/29 09:35:58;;;;;;;1.93;1.50;;;9.50;91.80;;;;;;4129943;28;20645;-64
2022/12/29 09:37:59;;;;;;;1.60;1.00;;;9.50;92.70;;;;;;4128993;28;20188;-64
2022/12/29 09:39:59;;;;;;;4.73;1.37;;;9.40;93.30;;;;;;4129668;28;20206;-63
2022/12/29 09:42:12;;;;;;;4.43;2.33;;;9.30;93.80;;;;;;4129834;28;20182;-63
2022/12/29 09:44:26;;;;;;;2.73;1.20;;;9.20;94.40;;;;;;4112436;28;20171;-63
2022/12/29 09:46:33;;;;;;;2.57;1.27;;;9.10;94.90;;;;;;4111851;28;20174;-64
2022/12/29 09:48:40;;;;;;;5.43;5.13;;;9.10;95.50;;;;;;4112186;28;20249;-64
2022/12/29 09:50:48;;;;;;;4.37;3.40;;;9.10;95.50;;;;;;4112451;28;20205;-63
2022/12/29 09:52:55;;;;;;;3.10;1.27;;;9.00;95.70;;;;;;4112338;28;20214;-63
2022/12/29 09:55:17;;;;;;;3.70;1.50;;;9.10;96.10;;;;;;4129343;28;20170;-63
2022/12/29 09:57:56;;;;;;;2.17;1.10;;;9.10;95.50;;;;;;4111444;28;20548;-63
2022/12/29 10:00:21;;;;;;;3.47;0.83;;;9.10;95.80;;;;;;4108295;28;20229;-63
2022/12/29 10:02:42;;;;;;;2.00;1.20;;;9.10;96.20;;;;;;4112077;28;20310;-64
2022/12/29 10:04:43;;;;;;;1.90;1.20;;;9.20;95.80;;;;;;4111569;28;20168;-64
2022/12/29 10:07:12;;;;;;;3.27;1.30;;;9.20;94.90;;;;;;4125830;28;20562;-63
2022/12/29 10:09:50;;;;;;;2.40;1.67;;;9.20;95.40;;;;;;4129102;28;20685;-64
2022/12/29 10:12:32;;;;;;;2.33;1.80;;;9.20;95.40;;;;;;4129075;28;20653;-63
2022/12/29 10:15:00;;;;;;;1.37;1.27;;;8.90;96.70;;;;;;4100380;28;20284;-63
2022/12/29 10:17:28;;;;;;;1.67;0.80;;;8.70;98.40;;;;;;4111364;28;20729;-63
2022/12/29 10:19:39;;;;;;;1.97;1.30;;;8.50;99.80;;;;;;4129056;28;20205;-63
2022/12/29 10:22:04;;;;;;;1.53;1.40;;;8.50;99.90;;;;;;4128751;28;20254;-64
2022/12/29 10:24:11;;;;;;;5.13;2.30;;;8.40;99.90;;;;;;4116231;28;20185;-63
2022/12/29 10:26:17;;;;;;;2.30;1.20;;;8.40;99.90;;;;;;4125180;28;20209;-63
2022/12/29 10:28:31;;;;;;;1.40;1.30;;;8.50;99.90;;;;;;4144755;28;20184;-63
2022/12/29 10:30:34;;;;;;;1.70;1.20;;;8.50;99.90;;;;;;4132769;28;20685;-63
2022/12/29 10:32:40;;;;;;;2.40;1.33;;;8.50;99.90;;;;;;4147179;28;20227;-63
2022/12/29 10:34:47;;;;;;;2.17;1.27;;;8.60;99.90;;;;;;4099061;28;20187;-63
2022/12/29 10:36:55;;;;;;;1.60;1.10;;;8.70;99.90;;;;;;4129783;28;20177;-63
2022/12/29 10:39:40;;;;;;;4.43;1.20;;;8.80;99.90;;;;;;4130845;28;20288;-63
2022/12/29 10:42:20;;;;;;;3.03;1.17;;;8.70;99.90;;;;;;4139605;28;20209;-63
2022/12/29 10:44:22;;;;;;;1.60;0.90;;;8.50;99.90;;;;;;4124372;28;20509;-63
2022/12/29 10:46:32;;;;;;;1.63;1.20;;;8.30;99.90;;;;;;4129983;28;20190;-63
2022/12/29 10:48:34;;;;;;;1.70;1.10;;;8.20;99.90;;;;;;4147222;28;20182;-63
2022/12/29 10:50:42;;;;;;;1.67;1.20;;;8.20;99.90;;;;;;4132295;28;20190;-64
2022/12/29 10:52:43;;;;;;;2.07;1.07;;;8.20;99.90;;;;;;4100318;28;20292;-63
2022/12/29 10:55:00;;;;;;;3.57;1.40;;;8.20;99.90;;;;;;4130369;28;20213;-62
2022/12/29 10:57:13;;;;;;;1.90;1.00;;;8.20;99.90;;;;;;4134043;28;20758;-62
2022/12/29 10:59:31;;;;;;;1.97;1.20;;;8.30;99.90;;;;;;4130208;28;20570;-62
2022/12/29 11:01:45;;;;;;;3.40;1.50;;;8.40;99.90;;;;;;4138718;28;20181;-62
2022/12/29 11:04:02;;;;;;;1.60;1.20;;;8.40;99.90;;;;;;4138654;28;20650;-62
2022/12/29 11:06:18;;;;;;;6.03;1.40;;;8.50;99.90;;;;;;4130140;28;20179;-63
2022/12/29 11:08:24;;;;;;;3.40;1.40;;;8.40;99.90;;;;;;4129721;28;20649;-62
2022/12/29 11:10:33;;;;;;;2.37;1.57;;;8.40;99.90;;;;;;4130049;28;20228;-62
2022/12/29 11:12:36;;;;;;;2.77;1.50;;;8.50;99.90;;;;;;4132016;28;20238;-63
2022/12/29 11:14:37;;;;;;;2.00;1.37;;;8.50;99.90;;;;;;4147238;28;20250;-63
2022/12/29 11:16:38;;;;;;;2.90;1.00;;;8.50;99.90;;;;;;4129346;28;20662;-62
2022/12/29 11:18:42;;;;;;;1.20;1.10;;;8.40;99.90;;;;;;4120021;28;20226;-62
2022/12/29 11:20:43;;;;;;;2.50;1.40;;;8.50;99.90;;;;;;4136919;28;20187;-64
2022/12/29 11:22:45;;;;;;;3.00;1.47;;;8.40;99.90;;;;;;4132604;28;20187;-64
2022/12/29 11:24:48;;;;;;;3.90;1.87;;;8.30;99.90;;;;;;4146861;28;20189;-66
2022/12/29 11:26:56;;;;;;;2.07;1.30;;;8.20;99.90;;;;;;4132231;28;20201;-63
2022/12/29 11:29:03;;;;;;;2.30;1.30;;;8.30;99.90;;;;;;4130280;28;20210;-62
2022/12/29 11:31:06;;;;;;;2.60;1.33;;;8.50;99.90;;;;;;4135213;28;20182;-63
2022/12/29 11:33:09;;;;;;;1.77;1.13;;;8.60;99.90;;;;;;4129624;28;20252;-64
2022/12/29 11:35:33;;;;;;;2.03;1.63;;;8.70;99.90;;;;;;4130007;28;20186;-63
2022/12/29 11:37:39;;;;;;;2.10;1.20;;;8.70;99.90;;;;;;4139083;28;20277;-63